Freetown, Sierra Leone
Current Conditions -  °F | °C
As of 12:00 PM on Sunday 21 Dec 2014 (Local Time) from GUCY Reporting Station
Haze Haze  
Wind Chill: 90°   Ceiling: Unl
Heat Index: 90°   Visibility: 3mi
Dew Point: 61°   Wind: 2mph
Humidity: 38%   Direction: NA
Pressure: 29.94"   Gusts: NA
Location:  8.49°N, 13.24°W
Report Text: GUCY 211200Z VRB02KT 5000 HZ NSC 32/16 Q1014 NOSIG
Loading
Personal Weather Stations






























Interactive Weather Map New forecast layout! Learn more

10-Day Weather Forecast

Advertisements
Track Severe Weather on mobile